createdAt,value
2019-03-01T16:52:30.228Z,30.35
2019-03-01T16:54:58.783Z,30.10
2019-03-01T16:57:27.348Z,28.32
2019-03-01T16:59:56.063Z,27.67
2019-03-01T17:02:24.726Z,27.17
2019-03-01T17:04:53.312Z,26.97
2019-03-01T17:07:25.117Z,26.15
2019-03-01T17:09:54.897Z,27.30
2019-03-01T17:12:22.631Z,24.77
2019-03-01T17:14:51.332Z,26.35
2019-03-01T17:17:19.977Z,26.93
2019-03-01T17:19:48.613Z,27.05
2019-03-01T17:22:17.324Z,26.97
2019-03-01T17:24:48.272Z,27.35
2019-03-01T17:27:16.275Z,26.95
2019-03-01T17:29:45.826Z,27.55
2019-03-01T17:32:14.624Z,27.73
2019-03-01T17:34:43.570Z,27.17
2019-03-01T17:37:12.182Z,28.65
2019-03-01T17:39:40.835Z,29.18
2019-03-01T17:42:09.523Z,29.00
2019-03-01T17:44:41.261Z,28.95
2019-03-01T17:47:09.746Z,28.00
2019-03-01T17:49:38.810Z,27.42
2019-03-01T17:52:07.538Z,28.75
2019-03-01T17:54:36.208Z,27.70
2019-03-01T17:57:04.848Z,27.82
2019-03-01T17:59:33.550Z,27.75
2019-03-01T18:02:02.207Z,27.17
2019-03-01T18:04:33.640Z,28.38
2019-03-01T18:07:01.232Z,27.93
2019-03-01T18:09:29.893Z,29.42
2019-03-01T18:11:58.675Z,28.55
2019-03-01T18:14:27.349Z,29.10
2019-03-01T18:16:57.103Z,29.37
2019-03-01T18:19:26.656Z,29.32
2019-03-01T18:21:56.606Z,30.12
2019-03-01T18:24:25.276Z,29.18
2019-03-01T18:26:53.897Z,29.72
2019-03-01T18:29:22.621Z,30.37
2019-03-01T18:31:51.257Z,31.00
2019-03-01T18:34:19.893Z,30.97
2019-03-01T18:36:49.340Z,30.92
2019-03-01T18:39:17.993Z,31.55
2019-03-01T18:41:46.630Z,30.95
2019-03-01T18:44:15.327Z,31.42
2019-03-01T18:46:44.064Z,31.87
2019-03-01T18:49:12.714Z,33.13
2019-03-01T18:51:43.296Z,33.45
2019-03-01T18:54:11.871Z,33.92
2019-03-01T18:56:40.519Z,32.88
2019-03-01T18:59:09.224Z,32.10
2019-03-01T19:01:37.884Z,32.95
2019-03-01T19:04:06.644Z,36.73
2019-03-01T19:06:35.344Z,32.98
2019-03-01T19:09:04.675Z,31.82
2019-03-01T19:11:34.716Z,33.67
2019-03-01T19:14:03.664Z,34.75
2019-03-01T19:16:32.326Z,34.88
2019-03-01T19:19:00.948Z,33.50
2019-03-01T19:21:31.209Z,34.70
2019-03-01T19:26:28.748Z,33.50
2019-03-01T19:28:58.918Z,34.23
2019-03-01T19:31:29.163Z,35.78
2019-03-01T19:33:57.881Z,35.00
2019-03-01T19:36:26.578Z,34.83
2019-03-01T19:38:56.779Z,37.15
2019-03-01T19:41:26.374Z,35.85
2019-03-01T19:43:57.692Z,36.70
2019-03-01T19:46:26.575Z,37.10
2019-03-01T19:48:57.717Z,36.13
2019-03-01T19:51:26.474Z,35.88
2019-03-01T19:53:57.421Z,35.28
2019-03-01T19:56:25.983Z,35.33
2019-03-01T19:58:54.989Z,36.75
2019-03-01T20:01:26.366Z,37.33
2019-03-01T20:03:57.049Z,39.35
2019-03-01T20:06:25.362Z,38.70
2019-03-01T20:08:54.005Z,38.08
2019-03-01T20:11:23.370Z,39.50
2019-03-01T20:13:53.796Z,38.15
2019-03-01T20:16:23.514Z,37.55
2019-03-01T20:18:52.115Z,44.48
2019-03-01T20:21:20.827Z,38.08
2019-03-01T20:23:49.461Z,38.40
2019-03-01T20:26:18.114Z,38.85
2019-03-01T20:28:47.693Z,37.73
2019-03-01T20:31:17.122Z,40.10
2019-03-01T20:33:45.766Z,39.15
2019-03-01T20:36:17.758Z,40.25
2019-03-01T20:38:44.759Z,38.55
2019-03-01T20:41:14.955Z,39.05
2019-03-01T20:43:43.935Z,38.63
2019-03-01T20:46:12.582Z,38.80
2019-03-01T20:48:41.220Z,39.25
2019-03-01T20:51:09.918Z,42.03
2019-03-01T20:53:38.567Z,42.80
2019-03-01T20:56:09.924Z,44.63
2019-03-01T20:58:39.649Z,45.15
2019-03-01T21:01:07.854Z,45.35
2019-03-01T21:03:36.498Z,45.45
2019-03-01T21:06:05.573Z,45.52
2019-03-01T21:08:34.450Z,44.80
2019-03-01T21:11:03.102Z,45.58
2019-03-01T21:13:31.803Z,46.90
2019-03-01T21:16:00.451Z,47.15
2019-03-01T21:18:30.768Z,88.67
2019-03-01T21:20:59.452Z,51.23
2019-03-01T21:23:28.104Z,49.40
2019-03-01T21:25:56.742Z,48.48
2019-03-01T21:28:25.454Z,48.05
2019-03-01T21:30:55.624Z,52.33
2019-03-01T21:33:27.429Z,51.15
2019-03-01T21:35:54.735Z,53.60
2019-03-01T21:38:23.390Z,52.03
2019-03-01T21:40:52.042Z,53.75
2019-03-01T21:43:21.522Z,54.42
2019-03-01T21:45:50.158Z,54.42
2019-03-01T21:48:21.916Z,52.30
2019-03-01T21:50:51.132Z,54.98
2019-03-01T21:53:19.470Z,54.73
2019-03-01T21:55:48.134Z,54.45
2019-03-01T21:58:16.770Z,54.13
2019-03-01T22:00:45.409Z,55.45
2019-03-01T22:03:13.987Z,58.20
2019-03-01T22:05:45.254Z,53.68
2019-03-01T22:08:13.736Z,56.28
2019-03-01T22:10:42.675Z,54.35
2019-03-01T22:13:11.375Z,54.85
2019-03-01T22:15:40.036Z,53.98
2019-03-01T22:18:08.607Z,53.40
2019-03-01T22:20:37.238Z,54.20
2019-03-01T22:23:05.881Z,54.13
2019-03-01T22:25:37.602Z,53.20
2019-03-01T22:28:04.872Z,52.53
2019-03-01T22:30:33.810Z,54.08
2019-03-01T22:33:02.448Z,55.60
2019-03-01T22:35:31.072Z,54.20
2019-03-01T22:38:01.142Z,56.23
2019-03-01T22:40:29.911Z,54.35
2019-03-01T22:42:58.601Z,54.65
2019-03-01T22:45:27.905Z,53.02
2019-03-01T22:47:56.560Z,53.73
2019-03-01T22:50:25.276Z,53.38
2019-03-01T22:52:53.906Z,52.62
2019-03-01T22:55:22.537Z,53.85
2019-03-01T22:57:51.237Z,52.20
2019-03-01T23:00:49.688Z,53.48
2019-03-01T23:03:20.076Z,54.93
2019-03-01T23:05:49.026Z,54.65
2019-03-01T23:08:17.613Z,55.40
2019-03-01T23:10:46.332Z,56.02
2019-03-01T23:13:17.043Z,55.75
2019-03-01T23:15:45.273Z,56.25
2019-03-01T23:18:13.966Z,56.48
2019-03-01T23:20:42.606Z,57.35
2019-03-01T23:23:11.198Z,58.13
2019-03-01T23:25:42.767Z,57.13
2019-03-01T23:28:10.113Z,55.92
2019-03-01T23:30:38.777Z,59.33
2019-03-01T23:33:07.394Z,57.70
2019-03-01T23:35:36.043Z,59.35
2019-03-01T23:38:04.608Z,58.90
2019-03-01T23:40:35.870Z,59.15
2019-03-01T23:43:03.607Z,60.10
2019-03-01T23:45:32.265Z,61.83
2019-03-01T23:48:01.732Z,61.70
2019-03-01T23:50:31.584Z,61.05
2019-03-01T23:53:00.626Z,62.45
2019-03-01T23:55:29.312Z,62.35
2019-03-01T23:58:05.701Z,64.70
